sensor_id;sensor_type;location;lat;lon;timestamp;P1;durP1;ratioP1;P2;durP2;ratioP2
23432;SDS011;41331;45.412;10.992;2022-08-21T15:01:59;2.00;;;0.60;;
23432;SDS011;41331;45.412;10.992;2022-08-21T15:04:27;1.88;;;0.70;;
23432;SDS011;41331;45.412;10.992;2022-08-21T15:06:55;1.75;;;0.80;;
23432;SDS011;41331;45.412;10.992;2022-08-21T15:09:23;1.42;;;0.60;;
23432;SDS011;41331;45.412;10.992;2022-08-21T15:11:52;2.33;;;0.60;;
23432;SDS011;41331;45.412;10.992;2022-08-21T15:14:26;1.60;;;0.60;;
23432;SDS011;41331;45.412;10.992;2022-08-21T15:16:55;1.30;;;0.63;;
23432;SDS011;41331;45.412;10.992;2022-08-21T15:19:23;3.17;;;0.70;;
23432;SDS011;41331;45.412;10.992;2022-08-21T15:21:51;1.33;;;0.60;;
23432;SDS011;41331;45.412;10.992;2022-08-21T15:24:19;1.35;;;0.60;;
23432;SDS011;41331;45.412;10.992;2022-08-21T15:26:47;1.50;;;0.60;;
23432;SDS011;41331;45.412;10.992;2022-08-21T15:29:15;1.98;;;0.50;;
23432;SDS011;41331;45.412;10.992;2022-08-21T15:31:53;1.65;;;0.60;;
23432;SDS011;41331;45.412;10.992;2022-08-21T15:34:24;1.20;;;0.50;;
23432;SDS011;41331;45.412;10.992;2022-08-21T15:36:54;1.40;;;0.60;;
23432;SDS011;41331;45.412;10.992;2022-08-21T15:39:24;1.10;;;0.60;;
23432;SDS011;41331;45.412;10.992;2022-08-21T15:41:57;1.40;;;0.68;;
23432;SDS011;41331;45.412;10.992;2022-08-21T15:44:25;2.88;;;0.60;;
23432;SDS011;41331;45.412;10.992;2022-08-21T15:46:55;1.45;;;0.60;;
23432;SDS011;41331;45.412;10.992;2022-08-21T15:49:23;1.08;;;0.50;;
23432;SDS011;41331;45.412;10.992;2022-08-21T15:51:51;1.00;;;0.50;;
23432;SDS011;41331;45.412;10.992;2022-08-21T15:54:18;2.13;;;0.57;;
23432;SDS011;41331;45.412;10.992;2022-08-21T15:56:47;1.73;;;0.60;;
23432;SDS011;41331;45.412;10.992;2022-08-21T15:59:18;1.38;;;0.60;;
23432;SDS011;41331;45.412;10.992;2022-08-21T16:01:49;2.35;;;0.70;;
23432;SDS011;41331;45.412;10.992;2022-08-21T16:04:21;1.20;;;0.70;;
23432;SDS011;41331;45.412;10.992;2022-08-21T16:06:50;1.55;;;0.60;;
23432;SDS011;41331;45.412;10.992;2022-08-21T16:09:24;1.48;;;0.65;;
23432;SDS011;41331;45.412;10.992;2022-08-21T16:11:51;1.98;;;0.77;;
23432;SDS011;41331;45.412;10.992;2022-08-21T16:14:20;2.50;;;0.68;;
23432;SDS011;41331;45.412;10.992;2022-08-21T16:16:47;1.65;;;0.68;;
23432;SDS011;41331;45.412;10.992;2022-08-21T16:19:14;2.50;;;0.60;;
23432;SDS011;41331;45.412;10.992;2022-08-21T16:21:42;1.95;;;0.80;;
23432;SDS011;41331;45.412;10.992;2022-08-21T16:24:09;1.25;;;0.45;;
23432;SDS011;41331;45.412;10.992;2022-08-21T16:26:37;1.60;;;0.70;;
23432;SDS011;41331;45.412;10.992;2022-08-21T16:29:05;2.35;;;0.60;;
23432;SDS011;41331;45.412;10.992;2022-08-21T16:31:34;1.63;;;0.70;;
23432;SDS011;41331;45.412;10.992;2022-08-21T16:34:02;1.77;;;0.60;;
23432;SDS011;41331;45.412;10.992;2022-08-21T16:36:30;1.02;;;0.60;;
23432;SDS011;41331;45.412;10.992;2022-08-21T16:38:57;2.33;;;0.60;;
23432;SDS011;41331;45.412;10.992;2022-08-21T16:41:27;1.20;;;0.60;;
23432;SDS011;41331;45.412;10.992;2022-08-21T16:43:59;1.08;;;0.50;;
23432;SDS011;41331;45.412;10.992;2022-08-21T16:46:32;1.63;;;0.80;;
23432;SDS011;41331;45.412;10.992;2022-08-21T16:49:01;1.75;;;0.73;;
23432;SDS011;41331;45.412;10.992;2022-08-21T16:51:29;2.40;;;0.70;;
23432;SDS011;41331;45.412;10.992;2022-08-21T16:53:57;1.42;;;0.63;;
23432;SDS011;41331;45.412;10.992;2022-08-21T16:56:25;2.15;;;0.70;;
23432;SDS011;41331;45.412;10.992;2022-08-21T16:58:53;1.27;;;0.60;;
23432;SDS011;41331;45.412;10.992;2022-08-21T17:01:25;1.20;;;0.60;;
23432;SDS011;41331;45.412;10.992;2022-08-21T17:03:57;1.80;;;0.50;;
23432;SDS011;41331;45.412;10.992;2022-08-21T17:06:25;1.40;;;0.52;;
23432;SDS011;41331;45.412;10.992;2022-08-21T17:08:55;1.75;;;0.40;;
23432;SDS011;41331;45.412;10.992;2022-08-21T17:11:28;2.85;;;0.65;;
23432;SDS011;41331;45.412;10.992;2022-08-21T17:14:08;2.92;;;0.55;;
23432;SDS011;41331;45.412;10.992;2022-08-21T17:16:41;2.03;;;0.60;;
23432;SDS011;41331;45.412;10.992;2022-08-21T17:19:11;2.03;;;0.70;;
23432;SDS011;41331;45.412;10.992;2022-08-21T17:21:39;2.42;;;0.70;;
23432;SDS011;41331;45.412;10.992;2022-08-21T17:24:07;1.10;;;0.63;;
23432;SDS011;41331;45.412;10.992;2022-08-21T17:26:35;1.45;;;0.60;;
23432;SDS011;41331;45.412;10.992;2022-08-21T17:29:03;2.88;;;0.70;;
23432;SDS011;41331;45.412;10.992;2022-08-21T17:31:35;2.13;;;0.80;;
23432;SDS011;41331;45.412;10.992;2022-08-21T17:34:05;1.45;;;0.70;;
23432;SDS011;41331;45.412;10.992;2022-08-21T17:36:33;1.73;;;0.70;;
23432;SDS011;41331;45.412;10.992;2022-08-21T17:39:00;1.48;;;0.65;;
23432;SDS011;41331;45.412;10.992;2022-08-21T17:41:28;1.10;;;0.68;;
23432;SDS011;41331;45.412;10.992;2022-08-21T17:43:55;1.65;;;0.90;;
23432;SDS011;41331;45.412;10.992;2022-08-21T17:46:25;2.75;;;0.90;;
23432;SDS011;41331;45.412;10.992;2022-08-21T17:48:54;3.10;;;0.90;;
23432;SDS011;41331;45.412;10.992;2022-08-21T17:51:23;1.63;;;0.70;;
23432;SDS011;41331;45.412;10.992;2022-08-21T17:53:51;1.80;;;0.80;;
23432;SDS011;41331;45.412;10.992;2022-08-21T17:56:18;3.22;;;0.73;;
23432;SDS011;41331;45.412;10.992;2022-08-21T17:58:47;1.13;;;0.60;;
23432;SDS011;41331;45.412;10.992;2022-08-21T18:01:17;1.95;;;0.77;;
23432;SDS011;41331;45.412;10.992;2022-08-21T18:03:46;1.30;;;0.65;;
23432;SDS011;41331;45.412;10.992;2022-08-21T18:06:14;2.30;;;0.85;;
23432;SDS011;41331;45.412;10.992;2022-08-21T18:08:44;1.85;;;0.80;;
23432;SDS011;41331;45.412;10.992;2022-08-21T18:11:13;1.42;;;0.60;;
23432;SDS011;41331;45.412;10.992;2022-08-21T18:13:49;2.13;;;0.82;;
23432;SDS011;41331;45.412;10.992;2022-08-21T18:16:20;1.85;;;0.90;;
23432;SDS011;41331;45.412;10.992;2022-08-21T18:18:48;1.75;;;0.80;;
23432;SDS011;41331;45.412;10.992;2022-08-21T18:21:17;1.85;;;0.90;;
23432;SDS011;41331;45.412;10.992;2022-08-21T18:23:45;2.42;;;0.80;;
23432;SDS011;41331;45.412;10.992;2022-08-21T18:26:13;2.78;;;0.70;;
23432;SDS011;41331;45.412;10.992;2022-08-21T18:28:43;2.40;;;0.73;;
23432;SDS011;41331;45.412;10.992;2022-08-21T18:31:11;2.63;;;0.85;;
23432;SDS011;41331;45.412;10.992;2022-08-21T18:33:39;3.78;;;0.90;;
23432;SDS011;41331;45.412;10.992;2022-08-21T18:36:25;4.85;;;0.80;;
23432;SDS011;41331;45.412;10.992;2022-08-21T18:38:55;1.73;;;0.87;;
23432;SDS011;41331;45.412;10.992;2022-08-21T18:41:43;1.83;;;0.85;;
23432;SDS011;41331;45.412;10.992;2022-08-21T18:44:12;2.55;;;0.95;;
23432;SDS011;41331;45.412;10.992;2022-08-21T18:46:42;2.42;;;1.05;;
23432;SDS011;41331;45.412;10.992;2022-08-21T18:49:14;2.30;;;1.00;;
23432;SDS011;41331;45.412;10.992;2022-08-21T18:51:42;2.65;;;1.30;;
23432;SDS011;41331;45.412;10.992;2022-08-21T18:54:29;4.90;;;2.03;;
23432;SDS011;41331;45.412;10.992;2022-08-21T18:56:58;7.18;;;1.80;;
23432;SDS011;41331;45.412;10.992;2022-08-21T18:59:31;3.38;;;1.38;;
23432;SDS011;41331;45.412;10.992;2022-08-21T19:01:59;2.45;;;1.10;;
23432;SDS011;41331;45.412;10.992;2022-08-21T19:04:27;5.20;;;1.10;;
23432;SDS011;41331;45.412;10.992;2022-08-21T19:07:10;2.05;;;1.08;;
23432;SDS011;41331;45.412;10.992;2022-08-21T19:09:39;3.28;;;1.30;;
23432;SDS011;41331;45.412;10.992;2022-08-21T19:12:11;2.63;;;1.17;;
23432;SDS011;41331;45.412;10.992;2022-08-21T19:14:44;3.33;;;1.35;;
23432;SDS011;41331;45.412;10.992;2022-08-21T19:17:11;3.20;;;1.20;;
23432;SDS011;41331;45.412;10.992;2022-08-21T19:19:39;2.33;;;1.10;;
23432;SDS011;41331;45.412;10.992;2022-08-21T19:22:07;2.45;;;1.20;;
23432;SDS011;41331;45.412;10.992;2022-08-21T19:24:37;4.30;;;1.42;;
23432;SDS011;41331;45.412;10.992;2022-08-21T19:27:15;2.30;;;1.05;;
23432;SDS011;41331;45.412;10.992;2022-08-21T19:29:44;3.20;;;1.10;;
23432;SDS011;41331;45.412;10.992;2022-08-21T19:32:11;3.40;;;0.90;;
23432;SDS011;41331;45.412;10.992;2022-08-21T19:34:39;4.38;;;1.05;;
23432;SDS011;41331;45.412;10.992;2022-08-21T19:37:08;3.65;;;1.05;;
23432;SDS011;41331;45.412;10.992;2022-08-21T19:39:37;3.22;;;1.02;;
23432;SDS011;41331;45.412;10.992;2022-08-21T19:42:12;2.10;;;1.00;;
23432;SDS011;41331;45.412;10.992;2022-08-21T19:44:40;5.85;;;1.20;;
23432;SDS011;41331;45.412;10.992;2022-08-21T19:47:12;4.03;;;1.17;;
23432;SDS011;41331;45.412;10.992;2022-08-21T19:49:47;2.22;;;1.08;;
23432;SDS011;41331;45.412;10.992;2022-08-21T19:52:16;3.38;;;1.00;;
23432;SDS011;41331;45.412;10.992;2022-08-21T19:54:44;2.60;;;1.10;;
23432;SDS011;41331;45.412;10.992;2022-08-21T19:57:12;3.05;;;1.00;;
23432;SDS011;41331;45.412;10.992;2022-08-21T19:59:40;4.68;;;1.25;;
23432;SDS011;41331;45.412;10.992;2022-08-21T20:02:09;2.35;;;1.08;;
23432;SDS011;41331;45.412;10.992;2022-08-21T20:04:37;1.75;;;0.90;;
23432;SDS011;41331;45.412;10.992;2022-08-21T20:10:06;3.28;;;0.90;;
23432;SDS011;41331;45.412;10.992;2022-08-21T20:12:36;2.00;;;1.00;;
23432;SDS011;41331;45.412;10.992;2022-08-21T20:15:04;3.53;;;1.00;;
23432;SDS011;41331;45.412;10.992;2022-08-21T20:17:33;2.35;;;1.10;;
23432;SDS011;41331;45.412;10.992;2022-08-21T20:20:01;4.35;;;1.10;;
23432;SDS011;41331;45.412;10.992;2022-08-21T20:22:29;2.50;;;1.13;;
23432;SDS011;41331;45.412;10.992;2022-08-21T20:24:58;2.58;;;1.20;;
23432;SDS011;41331;45.412;10.992;2022-08-21T20:27:25;2.63;;;1.17;;
23432;SDS011;41331;45.412;10.992;2022-08-21T20:29:53;2.67;;;1.20;;
23432;SDS011;41331;45.412;10.992;2022-08-21T20:32:21;2.85;;;1.08;;
23432;SDS011;41331;45.412;10.992;2022-08-21T20:34:49;3.30;;;1.13;;
23432;SDS011;41331;45.412;10.992;2022-08-21T20:37:19;4.65;;;1.05;;
23432;SDS011;41331;45.412;10.992;2022-08-21T20:40:04;3.90;;;1.02;;
23432;SDS011;41331;45.412;10.992;2022-08-21T20:42:38;2.17;;;0.88;;
23432;SDS011;41331;45.412;10.992;2022-08-21T20:45:10;2.42;;;1.15;;
23432;SDS011;41331;45.412;10.992;2022-08-21T20:47:44;2.65;;;1.00;;
23432;SDS011;41331;45.412;10.992;2022-08-21T20:50:12;1.75;;;0.90;;
23432;SDS011;41331;45.412;10.992;2022-08-21T20:52:46;4.60;;;1.00;;
23432;SDS011;41331;45.412;10.992;2022-08-21T20:55:18;4.05;;;1.02;;
23432;SDS011;41331;45.412;10.992;2022-08-21T20:58:46;1.83;;;1.00;;
23432;SDS011;41331;45.412;10.992;2022-08-21T21:01:13;4.30;;;1.08;;
23432;SDS011;41331;45.412;10.992;2022-08-21T21:03:43;3.15;;;1.08;;
23432;SDS011;41331;45.412;10.992;2022-08-21T21:06:14;2.45;;;0.95;;
23432;SDS011;41331;45.412;10.992;2022-08-21T21:08:50;2.03;;;0.88;;
23432;SDS011;41331;45.412;10.992;2022-08-21T21:11:25;4.28;;;1.00;;
23432;SDS011;41331;45.412;10.992;2022-08-21T21:14:15;2.72;;;1.10;;
23432;SDS011;41331;45.412;10.992;2022-08-21T21:19:24;3.08;;;1.00;;
23432;SDS011;41331;45.412;10.992;2022-08-21T21:22:05;2.45;;;1.17;;
23432;SDS011;41331;45.412;10.992;2022-08-21T21:24:41;5.20;;;1.45;;
23432;SDS011;41331;45.412;10.992;2022-08-21T21:30:03;3.10;;;1.17;;
23432;SDS011;41331;45.412;10.992;2022-08-21T21:32:40;2.88;;;1.30;;
23432;SDS011;41331;45.412;10.992;2022-08-21T21:35:11;2.65;;;1.10;;
23432;SDS011;41331;45.412;10.992;2022-08-21T21:37:42;2.83;;;0.93;;
23432;SDS011;41331;45.412;10.992;2022-08-21T21:40:30;3.23;;;1.00;;
23432;SDS011;41331;45.412;10.992;2022-08-21T21:48:56;1.80;;;0.95;;
23432;SDS011;41331;45.412;10.992;2022-08-21T21:59:59;1.77;;;0.90;;
23432;SDS011;41331;45.412;10.992;2022-08-21T22:05:42;2.30;;;1.10;;
23432;SDS011;41331;45.412;10.992;2022-08-21T22:14:15;2.13;;;0.90;;
23432;SDS011;41331;45.412;10.992;2022-08-21T22:16:49;3.17;;;0.98;;
23432;SDS011;41331;45.412;10.992;2022-08-21T22:19:25;2.33;;;1.02;;
23432;SDS011;41331;45.412;10.992;2022-08-21T22:22:16;3.30;;;1.58;;
23432;SDS011;41331;45.412;10.992;2022-08-21T22:24:47;6.22;;;1.60;;
23432;SDS011;41331;45.412;10.992;2022-08-21T22:27:19;4.32;;;1.58;;
23432;SDS011;41331;45.412;10.992;2022-08-21T22:29:54;4.28;;;1.50;;
23432;SDS011;41331;45.412;10.992;2022-08-21T22:37:58;2.28;;;1.10;;
23432;SDS011;41331;45.412;10.992;2022-08-21T22:40:28;3.08;;;1.10;;
23432;SDS011;41331;45.412;10.992;2022-08-21T22:43:02;2.10;;;0.98;;
23432;SDS011;41331;45.412;10.992;2022-08-21T22:45:53;2.35;;;0.88;;
23432;SDS011;41331;45.412;10.992;2022-08-21T22:48:50;2.58;;;0.90;;
23432;SDS011;41331;45.412;10.992;2022-08-21T22:51:34;2.33;;;0.80;;
23432;SDS011;41331;45.412;10.992;2022-08-21T22:54:04;2.22;;;0.93;;
23432;SDS011;41331;45.412;10.992;2022-08-21T22:56:56;2.33;;;0.90;;
23432;SDS011;41331;45.412;10.992;2022-08-21T22:59:27;3.72;;;0.90;;
23432;SDS011;41331;45.412;10.992;2022-08-21T23:02:04;3.53;;;1.10;;
23432;SDS011;41331;45.412;10.992;2022-08-21T23:07:34;2.15;;;0.80;;
23432;SDS011;41331;45.412;10.992;2022-08-21T23:10:28;2.92;;;1.08;;
23432;SDS011;41331;45.412;10.992;2022-08-21T23:13:03;3.15;;;1.25;;
23432;SDS011;41331;45.412;10.992;2022-08-21T23:16:41;5.35;;;1.30;;
23432;SDS011;41331;45.412;10.992;2022-08-21T23:18:46;3.83;;;1.05;;
23432;SDS011;41331;45.412;10.992;2022-08-21T23:35:23;5.80;;;1.30;;
23432;SDS011;41331;45.412;10.992;2022-08-21T23:38:21;3.50;;;1.10;;
23432;SDS011;41331;45.412;10.992;2022-08-21T23:56:02;2.72;;;1.15;;
